General Pedro Jose Mendez International Airport
MMCV : rendu visible

Aérodrome :











RETROUVEZ-NOUS SUR...

 
LOGIN :

S'inscrire | Disclaimer

   EN    FR    IT 

 









Légende :    VFR   VFR Marginal   IFR   IFR Intensif   IFR Très Intensif
Visi : 
Plafond : 
>= 8 km
>= 3000ft
5 à 8 km
1000 à 3000 ft
1500m à 5 km
500 à 1000 ft
800 à 1500m
200 à 500 ft
< 800m
< 200 ft
Symboles :   Orages  Brouillard  Fortes neiges  Fortes précipitations  Vent > 20 kt






- Altitude de l'aérodrome : 761 ft
- Code IATA : CVM


MMCV - General Pedro Jose Mendez International

DERNIER METAR :
  • 142040Z 01008KT 10SM SKC 19/13 A3010 RMK SLP/// 57031 970 ISOL CU

METARs EXPIRÉS :
  • 141950Z 02010KT 10SM FEW005 19/12 A3011 RMK 8/100
  • 141844Z 30008KT 7SM SCT003 15/13 A3014 RMK 8/600 ISOL CU HZY

TAF AMD TAF MMCV
Valide du 14 à 20h jusqu'au 15 à 18h UTC


142030Z 1420/1518 02010KT P6SM SCT012
TEMPO 1423/1503 4SM HZ BKN012
FM150400 33015KT 5SM BR HZ BKN008 OVC030
TEMPO 1510/1514 1SM BR OVC005
FM151400 33010KT 4SM HZ BKN015 OVC080



MET'MAP, la Météo Aéronautique d'un coup d'oeil ! - Copyright ORBIFLY Décembre 2007 - Disclaimer

ORBIFLY MET'MAP TEAM :

Programmation & Développement : Alexandra Zaïnal
Conception & Développement : Baudouin d'Aumeries
Co-Programmation & Développement : Marc-Olivier Méhu
Soutien technique & logistique : Manuel Goepfert

Contact : metmap@orbifly.com




SOURCES & CREDITS :

   NOAA       Earth
Advisory